D'Hanis, Texas
Current Conditions -  °F | °C
As of 7:51 AM on Saturday 20 Dec 2014 (Local Time) from KHDO Reporting Station
Overcast Overcast  
Wind Chill: 45°   Ceiling: 1400
Heat Index: 48°   Visibility: 10mi
Dew Point: 44°   Wind: 6mph
Humidity: 86%   Direction: 60°ENE
Pressure: 30.24"   Gusts: NA
Location:  29.33°N, 99.28°W
Report Text: KHDO 201351Z AUTO 06005KT 10SM OVC014 09/07 A3024 RMK AO2 SLP235 T00890067 $
Loading
Personal Weather Stations






























Interactive Weather Map New forecast layout! Learn more

10-Day Weather Forecast

Advertisements
Track Severe Weather on mobile